Aviation Digital Data Service (ADDS)

Output produced by METARs form (2003 UTC 06 March 2015)
found at http://aviationweather.gov/adds/metars/
 
KLFT 061720Z 0618/0718 03012G18KT P6SM SCT250 
     FM070000 01004KT P6SM SCT250